Time;durP1;ratioP1;P1;durP2;ratioP2;P2;SDS_P1;SDS_P2;PMS_P1;PMS_P2;Temp;Humidity;BMP_temperature;BMP_pressure;BME280_temperature;BME280_humidity;BME280_pressure;Samples;Min_cycle;Max_cycle;Signal;HPM_P1;HPM_P2
2022/02/03 00:02:12;;;;;;;0.63;0.40;;;3.00;99.90;2.80;96896.00;;;;5083474;28;20491;-73
2022/02/03 00:05:08;;;;;;;0.77;0.53;;;2.90;99.90;2.50;96886.00;;;;5079846;28;20430;-73
2022/02/03 00:08:05;;;;;;;0.97;0.70;;;2.80;99.90;2.40;96892.00;;;;5080265;28;20464;-72
2022/02/03 00:24:02;;;;;;;2.73;0.70;;;2.30;99.90;1.80;96920.00;;;;5099287;28;20435;-72
2022/02/03 00:26:58;;;;;;;0.53;0.40;;;2.10;99.90;1.70;96922.00;;;;5098807;28;20427;-72
2022/02/03 00:29:56;;;;;;;2.03;0.67;;;2.00;99.90;1.50;96919.00;;;;5080703;28;20806;-71
2022/02/03 00:33:12;;;;;;;0.50;0.50;;;1.90;99.90;1.40;96926.00;;;;5084201;28;20463;-72
2022/02/03 00:36:13;;;;;;;0.67;0.67;;;1.80;99.90;1.30;96933.00;;;;5098937;28;20432;-72
2022/02/03 00:48:23;;;;;;;1.90;0.60;;;1.40;99.90;1.00;96934.00;;;;5094614;28;20416;-72
2022/02/03 00:51:12;;;;;;;1.80;0.70;;;1.40;99.90;0.80;96949.00;;;;5087101;28;20442;-72
2022/02/03 00:54:01;;;;;;;3.47;0.60;;;1.30;99.90;0.80;96947.00;;;;5089727;28;20444;-72
2022/02/03 00:56:54;;;;;;;5.83;0.70;;;1.20;99.90;0.90;96958.00;;;;5097137;28;20793;-71
2022/02/03 00:59:57;;;;;;;2.57;1.13;;;1.20;99.90;0.90;96951.00;;;;5075951;28;20471;-71
2022/02/03 01:02:50;;;;;;;0.67;0.57;;;1.10;99.90;0.80;96950.00;;;;5070225;28;20450;-71
2022/02/03 01:05:43;;;;;;;0.43;0.43;;;1.10;99.90;0.80;96943.00;;;;5083428;28;20421;-71
2022/02/03 01:08:35;;;;;;;7.20;1.17;;;1.10;99.90;0.80;96939.00;;;;5086035;28;20406;-72
2022/02/03 01:11:32;;;;;;;4.97;0.80;;;1.00;99.90;0.50;96935.00;;;;5098935;28;20832;-71
2022/02/03 01:14:26;;;;;;;1.23;0.60;;;1.00;99.90;0.30;96934.00;;;;5097926;28;20770;-71
2022/02/03 01:17:29;;;;;;;2.43;0.70;;;0.90;99.90;0.50;96931.00;;;;5110573;28;20464;-73
2022/02/03 01:45:21;;;;;;;2.10;0.80;;;0.70;99.90;0.30;96908.00;;;;5096060;28;20435;-72
2022/02/03 01:48:22;;;;;;;0.80;0.80;;;0.60;99.90;0.20;96917.00;;;;5107468;28;20428;-71
2022/02/03 01:54:29;;;;;;;0.90;0.60;;;0.40;99.90;0.10;96919.00;;;;5091717;28;20978;-70
2022/02/03 01:57:20;;;;;;;2.00;0.80;;;0.40;99.90;0.10;96927.00;;;;5092312;28;20436;-71
2022/02/03 02:00:13;;;;;;;4.67;1.03;;;0.40;99.90;0.20;96928.00;;;;5108098;28;20429;-71
2022/02/03 02:03:17;;;;;;;3.60;0.97;;;0.40;99.90;0.20;96933.00;;;;5097707;28;20971;-71
2022/02/03 02:06:43;;;;;;;0.73;0.30;;;0.40;99.90;-0.40;96924.00;;;;5087912;28;20421;-70
2022/02/03 02:09:52;;;;;;;0.97;0.97;;;0.30;99.90;-0.40;96923.00;;;;5086075;28;20418;-71
2022/02/03 02:12:58;;;;;;;0.70;0.67;;;0.30;99.90;0.00;96928.00;;;;5074826;28;20441;-71
2022/02/03 02:16:02;;;;;;;2.97;0.80;;;0.20;99.90;0.00;96941.00;;;;5107885;28;20795;-71
2022/02/03 02:19:11;;;;;;;4.80;1.47;;;0.30;99.90;0.20;96927.00;;;;5086533;28;20996;-70
2022/02/03 02:44:33;;;;;;;3.43;0.50;;;0.60;99.90;-0.10;96884.00;;;;5098216;28;20425;-70
2022/02/03 02:47:28;;;;;;;0.40;0.40;;;0.50;99.90;-0.10;96883.00;;;;5107769;28;20958;-70
2022/02/03 02:50:24;;;;;;;1.47;0.70;;;0.60;99.90;0.10;96877.00;;;;5107472;28;20440;-71
2022/02/03 02:53:33;;;;;;;0.90;0.70;;;0.50;99.90;0.10;96889.00;;;;5099688;28;20421;-71
2022/02/03 02:56:34;;;;;;;1.00;0.57;;;0.50;99.90;0.10;96882.00;;;;5081340;28;20442;-71
2022/02/03 02:59:47;;;;;;;0.57;0.57;;;0.40;99.90;-0.20;96866.00;;;;5105255;28;20471;-71
2022/02/03 03:03:18;;;;;;;3.70;0.60;;;0.30;99.90;-0.20;96860.00;;;;5096525;28;20972;-70
2022/02/03 03:31:43;;;;;;;1.83;0.80;;;-0.30;99.90;-0.60;96890.00;;;;5062452;28;20438;-70
2022/02/03 03:34:52;;;;;;;0.90;0.80;;;-0.30;99.90;-0.70;96896.00;;;;5068318;28;20434;-70
2022/02/03 03:37:46;;;;;;;5.80;0.90;;;-0.30;99.90;-0.70;96902.00;;;;5086786;28;20952;-70
2022/02/03 03:40:36;;;;;;;0.63;0.60;;;-0.40;99.90;-0.70;96908.00;;;;5065852;28;20434;-70
2022/02/03 03:43:37;;;;;;;2.00;0.80;;;-0.40;99.90;-0.70;96907.00;;;;5063894;28;20426;-70
2022/02/03 03:46:30;;;;;;;1.73;0.77;;;-0.40;99.90;-0.90;96920.00;;;;5060580;28;20944;-70
2022/02/03 03:49:36;;;;;;;1.27;0.70;;;-0.40;99.90;-0.90;96908.00;;;;5066553;28;20419;-70
2022/02/03 03:52:29;;;;;;;0.53;0.53;;;-0.50;99.90;-0.90;96920.00;;;;5065413;28;20452;-70
2022/02/03 03:55:31;;;;;;;1.60;0.60;;;-0.50;99.90;-1.10;96918.00;;;;5065378;28;20442;-70
2022/02/03 03:58:40;;;;;;;2.23;1.10;;;-0.50;99.90;-1.10;96905.00;;;;5062570;28;20468;-70
2022/02/03 04:38:07;;;;;;;1.67;1.10;;;-0.80;99.90;-1.20;96948.00;;;;5062480;28;20440;-71
2022/02/03 04:45:03;;;;;;;1.03;0.83;;;-0.80;99.90;-1.10;96960.00;;;;5060319;28;20454;-70
2022/02/03 04:55:24;;;;;;;1.77;1.10;;;-0.70;99.90;-1.40;96976.00;;;;5084659;28;20417;-70
2022/02/03 04:59:08;;;;;;;1.57;0.90;;;-0.80;99.90;-1.10;97003.00;;;;5072868;28;20421;-70
2022/02/03 05:02:21;;;;;;;0.93;0.83;;;-0.80;99.90;-1.20;96993.00;;;;5061667;28;20972;-70
2022/02/03 05:05:42;;;;;;;1.10;1.00;;;-0.80;99.90;-1.20;97009.00;;;;5067226;28;20468;-70
2022/02/03 05:08:58;;;;;;;4.10;1.03;;;-0.80;99.90;-1.30;97013.00;;;;5056301;28;20433;-70
2022/02/03 05:12:14;;;;;;;2.10;0.90;;;-0.80;99.90;-1.60;97019.00;;;;5060572;28;20456;-70
2022/02/03 05:15:34;;;;;;;2.07;1.20;;;-0.90;99.90;-1.40;97018.00;;;;5067146;28;20426;-71
2022/02/03 05:19:18;;;;;;;1.87;1.07;;;-0.90;99.90;-1.20;97032.00;;;;5069396;28;20418;-70
2022/02/03 05:26:41;;;;;;;6.50;1.43;;;-0.90;99.90;-1.30;97044.00;;;;5041005;28;20430;-71
2022/02/03 05:44:09;;;;;;;2.00;1.10;;;-1.00;99.90;-1.30;97074.00;;;;5031062;28;20600;-71
2022/02/03 05:47:19;;;;;;;1.17;1.17;;;-0.90;99.90;-1.40;97080.00;;;;5065608;28;20423;-72
2022/02/03 05:50:27;;;;;;;4.53;1.63;;;-1.00;99.90;-1.40;97087.00;;;;5066013;28;20414;-71
2022/02/03 06:05:56;;;;;;;3.13;1.40;;;-1.10;99.90;-1.60;97113.00;;;;5061659;28;20438;-71
2022/02/03 06:08:56;;;;;;;1.47;1.37;;;-1.10;99.90;-1.70;97109.00;;;;5069281;28;20431;-71
2022/02/03 06:12:07;;;;;;;2.77;1.40;;;-1.20;99.90;-1.60;97121.00;;;;5066580;28;20449;-72
2022/02/03 06:15:04;;;;;;;1.13;1.00;;;-1.20;99.90;-1.80;97131.00;;;;5069424;28;20785;-72
2022/02/03 06:24:16;;;;;;;4.77;1.47;;;-1.20;99.90;-1.60;97156.00;;;;5032262;28;20537;-71
2022/02/03 06:30:18;;;;;;;2.80;1.57;;;-1.20;99.90;-1.50;97173.00;;;;5038967;28;20438;-71
2022/02/03 06:33:09;;;;;;;3.27;1.30;;;-1.20;99.90;-1.50;97166.00;;;;5039927;28;20603;-72
2022/02/03 06:35:58;;;;;;;2.67;2.10;;;-1.20;99.90;-1.40;97167.00;;;;5073724;22;20591;-82
2022/02/03 06:38:47;;;;;;;6.93;1.37;;;0.00;99.90;-1.40;97175.00;;;;5096148;28;20437;-82
2022/02/03 06:41:36;;;;;;;3.57;1.50;;;0.50;99.90;-1.40;97186.00;;;;5099154;28;20797;-82
2022/02/03 06:44:32;;;;;;;4.17;1.93;;;0.40;99.90;-1.40;97187.00;;;;5098290;28;20563;-82
2022/02/03 06:47:28;;;;;;;1.90;1.53;;;-1.10;99.90;-1.40;97190.00;;;;5097823;28;20432;-81
2022/02/03 06:50:21;;;;;;;2.33;1.43;;;0.10;99.90;-1.30;97193.00;;;;5096266;28;20455;-81
2022/02/03 06:53:13;;;;;;;3.30;1.40;;;0.10;99.90;-1.20;97199.00;;;;5097830;28;20493;-82
2022/02/03 06:56:07;;;;;;;1.63;1.53;;;-0.90;99.90;-1.00;97224.00;;;;5109304;28;21585;-83
2022/02/03 06:59:00;;;;;;;7.73;1.93;;;-0.90;99.90;-1.10;97212.00;;;;5104494;28;20453;-85
2022/02/03 07:01:48;;;;;;;2.87;1.80;;;-0.80;99.90;-0.80;97234.00;;;;5098419;28;20445;-84
2022/02/03 07:04:43;;;;;;;3.43;1.93;;;1.30;99.90;-0.60;97224.00;;;;5098094;28;20485;-82
2022/02/03 07:07:32;;;;;;;2.53;1.70;;;-0.40;99.90;-0.60;97229.00;;;;5098105;28;20436;-82
2022/02/03 07:10:22;;;;;;;3.33;2.13;;;-0.50;99.90;-0.50;97225.00;;;;5097505;28;20814;-84
2022/02/03 07:13:13;;;;;;;4.47;2.40;;;-0.40;99.90;-0.60;97235.00;;;;5096526;28;22177;-83
2022/02/03 07:16:02;;;;;;;8.53;2.73;;;-0.30;99.90;-0.30;97243.00;;;;5097932;28;20536;-81
2022/02/03 07:18:51;;;;;;;4.77;2.53;;;-0.20;99.90;-0.20;97233.00;;;;5086273;28;20808;-84
2022/02/03 07:21:42;;;;;;;7.30;1.77;;;0.70;99.90;-0.70;97259.00;;;;5087731;28;20444;-82
2022/02/03 07:24:31;;;;;;;1.73;1.63;;;-0.10;99.90;-0.80;97233.00;;;;5095958;28;20440;-82
2022/02/03 07:27:21;;;;;;;2.90;2.27;;;-0.10;99.90;-0.70;97242.00;;;;5093504;28;20450;-81
2022/02/03 07:30:11;;;;;;;4.60;2.53;;;0.30;99.90;-0.60;97255.00;;;;5089592;28;22188;-81
2022/02/03 07:33:02;;;;;;;1.60;1.50;;;-0.20;99.90;-0.70;97261.00;;;;5093748;28;20471;-82
2022/02/03 07:35:51;;;;;;;12.10;11.03;;;-0.20;99.90;-0.50;97257.00;;;;5093235;28;20432;-83
2022/02/03 07:38:41;;;;;;;4.27;3.87;;;-0.10;99.90;-0.20;97274.00;;;;5094232;28;21214;-85
2022/02/03 07:41:30;;;;;;;3.70;3.13;;;1.10;99.90;-0.30;97265.00;;;;5094086;28;20480;-82
2022/02/03 07:44:19;;;;;;;2.67;2.50;;;-0.10;99.90;-0.30;97274.00;;;;5090039;28;20842;-82
2022/02/03 07:47:08;;;;;;;5.30;2.03;;;0.00;99.90;-0.40;97288.00;;;;5092149;28;20528;-80
2022/02/03 07:49:57;;;;;;;10.17;1.80;;;0.00;99.90;-0.30;97285.00;;;;5093426;28;20451;-81
2022/02/03 07:52:48;;;;;;;4.20;2.13;;;0.50;99.90;-0.10;97292.00;;;;5096906;28;20555;-81
2022/02/03 07:55:39;;;;;;;4.87;2.43;;;0.40;99.90;0.20;97295.00;;;;5092013;28;22095;-82
2022/02/03 07:58:28;;;;;;;3.00;2.10;;;0.20;99.90;0.40;97303.00;;;;5088978;28;21285;-83
2022/02/03 08:01:17;;;;;;;2.07;1.50;;;0.30;99.90;0.40;97288.00;;;;5090985;28;20536;-82
2022/02/03 08:04:08;;;;;;;5.80;2.70;;;1.10;99.90;0.10;97295.00;;;;5091554;28;20464;-81
2022/02/03 08:06:57;;;;;;;7.40;2.33;;;0.40;99.90;0.30;97305.00;;;;5087995;28;20424;-82
2022/02/03 08:09:54;;;;;;;2.10;1.90;;;0.30;99.90;0.60;97312.00;;;;5088131;28;20872;-82
2022/02/03 08:12:47;;;;;;;3.83;2.63;;;0.50;99.90;0.60;97308.00;;;;5091580;28;20528;-81
2022/02/03 08:15:39;;;;;;;3.33;2.33;;;0.60;99.90;0.70;97314.00;;;;5092519;28;20463;-81
2022/02/03 08:18:30;;;;;;;6.43;2.40;;;1.20;99.90;0.70;97316.00;;;;5092197;28;20429;-81
2022/02/03 08:21:21;;;;;;;2.87;2.00;;;0.70;99.90;0.80;97308.00;;;;5090004;28;20976;-82
2022/02/03 08:24:23;;;;;;;4.10;2.27;;;2.80;99.90;0.90;97316.00;;;;5094102;28;20853;-81
2022/02/03 08:27:37;;;;;;;3.97;3.37;;;1.20;99.90;0.90;97321.00;;;;5093400;28;20432;-82
2022/02/03 08:30:44;;;;;;;12.97;7.40;;;0.90;99.90;0.70;97318.00;;;;5094577;28;21056;-81
2022/02/03 08:33:34;;;;;;;4.17;3.77;;;0.90;99.90;0.30;97330.00;;;;5094949;28;21286;-81
2022/02/03 08:36:25;;;;;;;1.83;1.27;;;0.90;99.90;0.30;97318.00;;;;5094598;28;20969;-81
2022/02/03 08:39:19;;;;;;;2.90;1.70;;;1.30;99.90;0.50;97323.00;;;;5096003;28;20800;-81
2022/02/03 08:42:08;;;;;;;2.13;1.90;;;0.80;99.90;0.80;97319.00;;;;5092371;28;20545;-81
2022/02/03 08:44:57;;;;;;;3.20;1.77;;;0.90;99.90;0.60;97318.00;;;;5095467;28;20433;-82
2022/02/03 08:47:48;;;;;;;6.10;2.57;;;1.00;99.90;0.80;97314.00;;;;5097845;28;20441;-82
2022/02/03 08:50:37;;;;;;;2.30;2.03;;;1.10;99.90;1.20;97313.00;;;;5095569;28;20437;-81
2022/02/03 08:53:30;;;;;;;8.10;2.23;;;1.10;99.90;1.60;97324.00;;;;5095019;28;20448;-82
2022/02/03 08:56:28;;;;;;;6.40;2.33;;;1.30;99.90;1.60;97327.00;;;;5100398;28;20448;-82
2022/02/03 08:59:35;;;;;;;2.60;1.80;;;1.40;99.90;1.70;97326.00;;;;5091696;28;20465;-83
2022/02/03 09:37:12;;;;;;;6.70;2.90;;;3.20;99.90;3.30;97320.00;;;;5101244;28;20464;-82
2022/02/03 09:40:22;;;;;;;6.77;2.53;;;3.40;99.90;3.90;97331.00;;;;5104562;28;20219;-82
2022/02/03 09:56:03;;;;;;;6.93;2.53;;;4.20;99.90;5.10;97327.00;;;;5067729;28;20202;-82
2022/02/03 09:59:05;;;;;;;4.10;2.77;;;4.40;99.90;5.10;97324.00;;;;5096462;28;20679;-81
2022/02/03 10:02:08;;;;;;;6.03;3.00;;;4.70;99.90;5.30;97322.00;;;;5110863;28;20310;-81
2022/02/03 10:05:00;;;;;;;3.83;2.40;;;4.80;99.90;5.60;97328.00;;;;5105089;28;20317;-81
2022/02/03 10:07:54;;;;;;;5.07;2.27;;;5.20;99.90;5.80;97319.00;;;;5096662;28;20214;-82
2022/02/03 10:11:14;;;;;;;3.83;2.60;;;5.30;99.90;6.00;97307.00;;;;5093593;28;20207;-83
2022/02/03 10:14:05;;;;;;;7.00;2.37;;;5.60;99.90;6.10;97315.00;;;;5091494;28;20237;-81
2022/02/03 10:16:57;;;;;;;6.07;2.63;;;5.80;99.90;6.40;97291.00;;;;5096877;28;20213;-82
2022/02/03 10:19:50;;;;;;;2.27;1.97;;;5.90;99.90;6.90;97306.00;;;;5090669;28;20778;-82
2022/02/03 10:22:47;;;;;;;2.83;1.87;;;6.10;99.90;7.30;97319.00;;;;5090286;28;20230;-81
2022/02/03 10:25:38;;;;;;;1.77;1.40;;;6.30;99.90;7.50;97312.00;;;;5090256;28;20207;-81
2022/02/03 10:28:27;;;;;;;4.47;1.97;;;6.50;99.90;7.80;97318.00;;;;5092251;28;20667;-82
2022/02/03 10:31:16;;;;;;;4.00;1.40;;;6.60;99.90;8.00;97295.00;;;;5090059;28;20203;-83
2022/02/03 10:34:09;;;;;;;1.43;1.30;;;6.90;99.90;8.10;97302.00;;;;5090360;28;20222;-82
2022/02/03 10:37:07;;;;;;;3.80;1.17;;;7.10;99.90;8.40;97294.00;;;;5090811;28;20226;-83
2022/02/03 10:40:20;;;;;;;1.37;1.00;;;8.60;99.90;8.60;97290.00;;;;5090362;28;20203;-84
2022/02/03 10:43:34;;;;;;;2.23;1.30;;;7.10;99.90;9.00;97279.00;;;;5089610;28;20323;-82
2022/02/03 10:46:47;;;;;;;4.90;1.07;;;8.10;99.90;9.30;97288.00;;;;5092237;28;20653;-82
2022/02/03 10:53:23;;;;;;;2.97;1.53;;;9.20;99.60;10.50;97289.00;;;;5099050;28;20242;-82
2022/02/03 10:56:25;;;;;;;4.10;1.77;;;9.80;99.20;10.60;97294.00;;;;5097525;28;20300;-82
2022/02/03 11:02:47;;;;;;;2.70;1.87;;;10.40;91.00;10.60;97307.00;;;;5056580;28;20283;-83
2022/02/03 11:05:55;;;;;;;3.43;1.40;;;10.50;90.10;10.40;97285.00;;;;5096473;28;20984;-81
2022/02/03 11:08:49;;;;;;;8.20;1.67;;;10.40;88.80;10.60;97293.00;;;;5097591;28;20232;-81
2022/02/03 11:11:44;;;;;;;3.47;1.80;;;10.40;88.10;10.60;97277.00;;;;5093475;28;20310;-84
2022/02/03 11:14:35;;;;;;;8.87;3.13;;;10.60;89.40;10.70;97276.00;;;;5093914;28;20492;-83
2022/02/03 11:17:24;;;;;;;5.37;1.50;;;10.80;83.20;10.30;97260.00;;;;5092342;28;20641;-80
2022/02/03 11:20:14;;;;;;;3.70;1.20;;;10.90;80.00;10.70;97270.00;;;;5089058;28;20267;-82
2022/02/03 11:23:18;;;;;;;3.73;1.53;;;11.00;77.20;10.40;97270.00;;;;5094666;28;20233;-80
2022/02/03 11:26:16;;;;;;;5.03;1.30;;;10.90;73.60;9.60;97263.00;;;;5094651;28;20906;-79
2022/02/03 11:32:39;;;;;;;5.40;1.57;;;10.50;70.10;10.30;97245.00;;;;5089133;27;20202;-80
2022/02/03 12:01:49;;;;;;;4.50;1.27;;;12.80;64.70;11.50;97236.00;;;;4913964;29;20208;-80
2022/02/03 12:05:09;;;;;;;1.67;1.43;;;12.70;62.00;12.40;97227.00;;;;4992731;28;20225;-81
2022/02/03 12:18:14;;;;;;;3.77;2.20;;;12.70;64.70;13.40;97214.00;;;;5096519;28;20658;-81
2022/02/03 12:21:11;;;;;;;7.80;2.30;;;12.90;65.10;13.30;97209.00;;;;5097053;28;20207;-81
2022/02/03 12:24:18;;;;;;;5.93;2.47;;;13.10;64.20;13.10;97216.00;;;;5097243;28;20228;-81
2022/02/03 12:27:27;;;;;;;4.37;1.90;;;13.10;63.60;12.20;97223.00;;;;5097571;28;20206;-81
2022/02/03 12:30:26;;;;;;;10.83;2.90;;;12.70;62.10;12.10;97212.00;;;;5096688;28;20656;-81
2022/02/03 12:36:59;;;;;;;4.30;1.60;;;12.30;62.70;11.60;97215.00;;;;5095748;28;20238;-82
2022/02/03 12:39:45;;;;;;;7.17;3.53;;;11.60;64.50;11.60;97197.00;;;;5095837;28;20206;-81
2022/02/03 12:42:49;;;;;;;11.20;1.80;;;11.40;65.50;11.60;97200.00;;;;5099885;28;20278;-81
2022/02/03 12:45:38;;;;;;;3.43;1.67;;;11.30;65.60;11.40;97201.00;;;;5101276;28;20222;-82
2022/02/03 12:48:30;;;;;;;3.33;1.40;;;11.30;64.00;12.20;97161.00;;;;5097044;28;20213;-81
2022/02/03 12:51:22;;;;;;;3.67;1.40;;;11.40;63.60;13.40;97181.00;;;;5093832;28;20403;-82
2022/02/03 12:54:15;;;;;;;2.20;1.10;;;12.00;65.10;13.20;97167.00;;;;5098205;28;20227;-81
2022/02/03 12:57:05;;;;;;;7.83;1.87;;;12.60;62.60;14.30;97196.00;;;;5098268;28;20206;-81
2022/02/03 13:00:14;;;;;;;2.67;1.33;;;13.30;59.80;13.70;97173.00;;;;5099685;28;20287;-82
2022/02/03 13:03:04;;;;;;;4.00;1.00;;;13.90;58.20;13.80;97187.00;;;;5097501;28;20246;-80
2022/02/03 13:05:56;;;;;;;3.70;1.20;;;14.30;56.20;12.90;97167.00;;;;5097900;28;20211;-81
2022/02/03 13:08:49;;;;;;;1.57;1.00;;;14.30;54.70;11.60;97178.00;;;;5100422;28;20217;-81
2022/02/03 13:11:43;;;;;;;3.10;1.33;;;12.90;53.90;12.70;97126.00;;;;5107142;28;20211;-81
2022/02/03 13:14:39;;;;;;;1.43;1.20;;;13.30;54.70;14.20;97136.00;;;;5093335;28;20212;-81
2022/02/03 13:17:33;;;;;;;2.97;1.40;;;13.50;56.70;13.40;97164.00;;;;5094039;28;20315;-82
2022/02/03 13:20:34;;;;;;;5.73;1.40;;;13.60;54.90;13.50;97166.00;;;;5092426;28;20851;-81
2022/02/03 13:23:27;;;;;;;9.30;1.50;;;13.40;55.60;13.00;97146.00;;;;5097598;28;20230;-82
2022/02/03 13:26:23;;;;;;;4.90;1.70;;;13.10;56.40;13.40;97177.00;;;;5097481;28;20214;-81
2022/02/03 13:29:21;;;;;;;7.03;2.10;;;13.10;56.70;13.40;97179.00;;;;5096761;28;20202;-81
2022/02/03 13:32:15;;;;;;;5.57;2.03;;;13.00;57.60;13.00;97148.00;;;;5089211;28;20234;-81
2022/02/03 13:35:22;;;;;;;10.67;2.53;;;12.90;57.90;12.50;97107.00;;;;5090532;28;20206;-82
2022/02/03 13:38:21;;;;;;;5.10;1.90;;;12.70;56.80;13.20;97177.00;;;;5093371;28;20885;-81
2022/02/03 13:41:17;;;;;;;12.30;2.30;;;12.70;58.00;12.80;97174.00;;;;5094816;28;20211;-80
2022/02/03 13:44:07;;;;;;;4.53;2.00;;;12.60;57.40;12.20;97171.00;;;;5094630;28;20711;-81
2022/02/03 13:46:58;;;;;;;7.60;1.60;;;12.40;57.80;11.50;97173.00;;;;5094661;28;20214;-81
2022/02/03 13:50:02;;;;;;;8.83;2.43;;;12.10;56.90;11.30;97171.00;;;;5095935;28;20215;-80
2022/02/03 13:52:56;;;;;;;5.80;1.60;;;11.60;57.70;11.20;97161.00;;;;5093994;28;20284;-81
2022/02/03 14:15:11;;;;;;;6.70;1.70;;;10.50;62.80;12.00;97142.00;;;;5061510;28;20219;-81
2022/02/03 14:18:23;;;;;;;12.67;3.57;;;10.90;62.70;12.00;97142.00;;;;5097044;28;20215;-81
2022/02/03 14:21:18;;;;;;;5.93;1.37;;;11.20;61.50;11.80;97115.00;;;;5093920;28;20206;-81
2022/02/03 14:27:21;;;;;;;4.03;1.40;;;11.80;59.70;14.40;97094.00;;;;5089948;28;20215;-80
2022/02/03 14:30:16;;;;;;;4.00;1.87;;;12.60;58.40;14.90;97094.00;;;;5093186;28;20262;-81
2022/02/03 14:33:05;;;;;;;2.60;1.67;;;13.50;57.00;14.50;97096.00;;;;5088063;28;20251;-81
2022/02/03 14:36:03;;;;;;;2.57;1.37;;;14.40;54.60;13.80;97095.00;;;;5093272;28;20235;-81
2022/02/03 14:39:00;;;;;;;2.90;1.60;;;14.90;52.50;15.00;97154.00;;;;5090247;28;20416;-81
2022/02/03 14:41:50;;;;;;;6.60;1.70;;;14.90;52.40;15.20;97122.00;;;;5094875;28;20397;-82
2022/02/03 14:44:40;;;;;;;5.00;2.28;;;14.90;52.80;13.90;97111.00;;;;5099240;28;20419;-82
2022/02/03 14:47:30;;;;;;;5.85;1.90;;;14.80;52.30;13.30;97110.00;;;;5096396;28;20762;-81
2022/02/03 14:50:20;;;;;;;2.07;1.40;;;14.60;51.40;13.40;97094.00;;;;5097081;28;20707;-81
2022/02/03 14:53:16;;;;;;;2.70;1.50;;;14.20;52.10;13.20;97072.00;;;;5094146;28;20237;-81
2022/02/03 14:59:11;;;;;;;3.70;1.80;;;13.90;54.80;14.80;97084.00;;;;5098120;28;20203;-81
2022/02/03 15:02:06;;;;;;;5.37;1.70;;;14.30;56.50;14.90;97094.00;;;;5096931;28;20214;-82
2022/02/03 15:04:55;;;;;;;8.63;2.00;;;14.80;56.90;15.50;97091.00;;;;5096859;28;20255;-81
2022/02/03 15:07:44;;;;;;;5.93;1.60;;;15.10;56.00;15.00;97100.00;;;;5097211;28;20202;-81
2022/02/03 15:10:52;;;;;;;8.50;1.50;;;15.30;55.60;14.80;97091.00;;;;5096782;28;20202;-81
2022/02/03 15:13:42;;;;;;;3.00;1.53;;;15.30;56.10;13.90;97096.00;;;;5099035;28;20234;-80
2022/02/03 15:16:31;;;;;;;4.73;2.73;;;15.20;54.50;12.80;97121.00;;;;5097432;28;20270;-81
2022/02/03 15:19:33;;;;;;;6.43;3.37;;;14.80;54.00;10.10;97103.00;;;;5100602;28;20206;-82
2022/02/03 15:22:21;;;;;;;11.97;3.63;;;13.20;55.40;9.40;97103.00;;;;5103001;28;21031;-80
2022/02/03 15:25:11;;;;;;;6.97;4.03;;;11.90;57.30;8.40;97103.00;;;;5102500;28;20411;-81
2022/02/03 15:28:02;;;;;;;3.43;2.20;;;10.70;59.70;7.00;97101.00;;;;5098324;28;20632;-80
2022/02/03 15:30:53;;;;;;;4.97;2.93;;;9.50;62.60;6.80;97097.00;;;;5096385;28;20275;-79
2022/02/03 15:33:46;;;;;;;4.20;2.20;;;8.40;66.30;6.30;97080.00;;;;5096486;28;20290;-82
2022/02/03 15:36:39;;;;;;;3.13;1.50;;;7.60;69.90;5.60;97069.00;;;;5093642;28;20218;-80
2022/02/03 15:39:35;;;;;;;5.90;2.97;;;7.00;72.90;5.60;97076.00;;;;5093724;28;20516;-81
2022/02/03 15:42:27;;;;;;;3.70;2.30;;;6.50;75.50;5.80;97068.00;;;;5095145;28;20210;-83
2022/02/03 15:45:17;;;;;;;6.97;3.70;;;6.20;76.60;5.80;97074.00;;;;5096418;28;21839;-82
2022/02/03 15:48:18;;;;;;;8.03;3.90;;;6.00;79.40;4.90;97069.00;;;;5096215;28;20597;-82
2022/02/03 15:51:22;;;;;;;4.53;2.63;;;5.70;82.00;4.80;97062.00;;;;5094472;28;20206;-82
2022/02/03 16:01:06;;;;;;;4.50;2.33;;;5.00;88.20;4.90;97050.00;;;;5079692;28;20195;-82
2022/02/03 16:04:04;;;;;;;5.87;3.50;;;4.90;89.80;4.60;97048.00;;;;5097399;28;20298;-84
2022/02/03 16:19:19;;;;;;;9.70;5.23;;;3.60;95.80;4.10;97041.00;;;;5105934;28;20862;-84
2022/02/03 16:22:19;;;;;;;3.63;2.10;;;4.20;97.00;4.30;97040.00;;;;5108243;28;20206;-83
2022/02/03 16:25:18;;;;;;;3.37;1.73;;;4.20;97.40;4.40;97043.00;;;;5110632;28;20208;-82
2022/02/03 16:50:29;;;;;;;7.43;2.27;;;4.00;99.90;3.80;97029.00;;;;5104284;28;20211;-82
2022/02/03 16:53:18;;;;;;;5.80;1.57;;;3.90;99.90;3.80;97024.00;;;;5106659;28;20297;-85
2022/02/03 16:56:09;;;;;;;10.30;3.37;;;3.90;99.90;3.50;97023.00;;;;5098146;28;20210;-82
2022/02/03 16:58:59;;;;;;;4.90;2.27;;;3.90;99.90;3.80;97008.00;;;;5102971;28;20267;-84
2022/02/03 17:01:48;;;;;;;8.53;3.13;;;3.80;99.90;3.90;97007.00;;;;5103961;28;20351;-83
2022/02/03 17:04:39;;;;;;;4.40;1.63;;;3.90;99.90;4.00;97022.00;;;;5102463;28;20211;-82
2022/02/03 17:07:28;;;;;;;2.00;1.77;;;3.80;99.90;4.00;97015.00;;;;5098698;28;20360;-83
2022/02/03 17:10:17;;;;;;;3.83;1.97;;;3.90;99.90;3.90;97007.00;;;;5097348;28;20206;-83
2022/02/03 17:13:06;;;;;;;2.47;1.83;;;3.90;99.90;3.80;97005.00;;;;5099437;28;20686;-84
2022/02/03 17:15:55;;;;;;;4.80;1.90;;;3.80;99.90;3.70;96997.00;;;;5100825;28;20210;-85
2022/02/03 17:18:45;;;;;;;5.40;2.13;;;3.80;99.90;3.50;97002.00;;;;5099329;28;20217;-83
2022/02/03 17:21:36;;;;;;;7.60;2.00;;;3.70;99.90;3.10;96990.00;;;;5099710;28;20444;-83
2022/02/03 17:24:25;;;;;;;6.80;1.80;;;3.50;99.90;2.80;96990.00;;;;5096958;28;20226;-83
2022/02/03 17:27:23;;;;;;;1.87;1.67;;;3.40;99.90;3.00;96992.00;;;;5102725;28;20290;-84
2022/02/03 17:30:18;;;;;;;3.83;1.60;;;3.30;99.90;3.00;96989.00;;;;5103205;28;20207;-83
2022/02/03 17:53:05;;;;;;;9.57;3.67;;;2.90;99.90;2.90;96985.00;;;;5103283;28;20441;-82
2022/02/03 18:18:03;;;;;;;9.57;3.43;;;2.60;99.90;2.40;96957.00;;;;5106396;28;20840;-82
2022/02/03 18:37:31;;;;;;;4.60;2.10;;;2.40;99.90;2.30;96965.00;;;;5092245;28;20448;-86
2022/02/03 18:53:03;;;;;;;10.03;5.60;;;1.90;99.90;1.60;96939.00;;;;5114274;28;20461;-83
2022/02/03 18:56:02;;;;;;;3.80;2.27;;;1.80;99.90;1.00;96950.00;;;;5117784;28;20809;-82
2022/02/03 18:59:00;;;;;;;2.80;2.30;;;1.80;99.90;0.70;96933.00;;;;5112820;28;20437;-83
2022/02/03 19:02:28;;;;;;;3.93;2.50;;;1.60;99.90;1.10;96922.00;;;;5117240;28;20440;-82
2022/02/03 19:15:01;;;;;;;3.50;2.40;;;1.40;99.90;1.00;96909.00;;;;5111506;28;20820;-83
2022/02/03 19:21:29;;;;;;;5.33;3.40;;;1.20;99.90;0.40;96910.00;;;;5112739;28;20465;-81
2022/02/03 19:27:43;;;;;;;4.33;3.53;;;1.10;99.90;0.80;96914.00;;;;5081808;28;20448;-85
2022/02/03 20:04:53;;;;;;;2.50;2.30;;;1.00;99.90;0.50;96850.00;;;;5098664;28;20440;-81
2022/02/03 20:07:49;;;;;;;3.33;2.30;;;0.90;99.90;0.50;96848.00;;;;5098896;28;20667;-82
2022/02/03 20:10:41;;;;;;;3.47;2.30;;;0.60;99.90;0.30;96841.00;;;;5096514;28;20440;-82
2022/02/03 20:13:30;;;;;;;5.00;2.57;;;0.60;99.90;0.00;96829.00;;;;5103778;28;20452;-80
2022/02/03 20:16:22;;;;;;;5.93;2.53;;;0.70;99.90;-0.10;96839.00;;;;5104268;28;20556;-80
2022/02/03 20:19:15;;;;;;;5.37;2.63;;;0.50;99.90;0.10;96852.00;;;;5099948;28;20447;-83
2022/02/03 20:22:05;;;;;;;6.90;2.97;;;1.40;99.90;-0.30;96837.00;;;;5102135;28;20453;-83
2022/02/03 20:24:54;;;;;;;2.43;2.23;;;0.30;99.90;-0.40;96835.00;;;;5105091;28;20425;-83
2022/02/03 20:27:43;;;;;;;3.97;2.90;;;0.20;99.90;-0.10;96848.00;;;;5104910;28;20443;-82
2022/02/03 20:30:33;;;;;;;2.27;2.03;;;1.30;99.90;0.10;96838.00;;;;5107226;28;20437;-83
2022/02/03 20:33:23;;;;;;;2.60;2.30;;;0.20;99.90;0.10;96822.00;;;;5103166;28;20467;-82
2022/02/03 20:36:13;;;;;;;4.00;2.80;;;0.70;99.90;-0.10;96822.00;;;;5106901;28;20472;-80
2022/02/03 20:39:02;;;;;;;3.90;3.23;;;0.20;99.90;-0.40;96804.00;;;;5103866;28;20436;-81
2022/02/03 20:41:51;;;;;;;5.67;2.63;;;1.10;99.90;-0.20;96800.00;;;;5103807;28;20452;-82
2022/02/03 20:44:40;;;;;;;6.63;2.60;;;0.10;99.90;-0.30;96794.00;;;;5102568;28;20463;-81
2022/02/03 20:47:31;;;;;;;3.83;2.70;;;0.90;99.90;-0.30;96799.00;;;;5104050;28;20452;-81
2022/02/03 20:50:20;;;;;;;2.50;2.20;;;1.90;99.90;-0.10;96795.00;;;;5106728;28;20433;-83
2022/02/03 20:53:10;;;;;;;3.40;2.10;;;0.40;99.90;0.00;96786.00;;;;5102542;28;20983;-81
2022/02/03 20:56:00;;;;;;;9.90;3.40;;;0.20;99.90;0.00;96790.00;;;;5101297;28;20464;-79
2022/02/03 20:58:50;;;;;;;3.60;2.50;;;0.10;99.90;0.00;96796.00;;;;5104529;28;20448;-81
2022/02/03 21:01:42;;;;;;;4.40;2.70;;;0.20;99.90;-0.10;96793.00;;;;5102077;28;20983;-83
2022/02/03 21:04:47;;;;;;;2.63;2.43;;;0.10;99.90;0.00;96782.00;;;;5106372;28;20455;-83
2022/02/03 21:07:42;;;;;;;3.70;2.30;;;0.10;99.90;-0.10;96781.00;;;;5108339;28;20438;-84